sensor_id;sensor_type;location;lat;lon;timestamp;P1;durP1;ratioP1;P2;durP2;ratioP2
52450;SDS011;38366;53.176;6.540;2022-12-18T00:01:23;54.70;;;20.40;;
52450;SDS011;38366;53.176;6.540;2022-12-18T00:03:51;69.57;;;22.35;;
52450;SDS011;38366;53.176;6.540;2022-12-18T00:06:18;88.95;;;24.58;;
52450;SDS011;38366;53.176;6.540;2022-12-18T00:08:44;66.82;;;22.90;;
52450;SDS011;38366;53.176;6.540;2022-12-18T00:11:12;71.95;;;20.95;;
52450;SDS011;38366;53.176;6.540;2022-12-18T00:13:39;75.13;;;21.80;;
52450;SDS011;38366;53.176;6.540;2022-12-18T00:16:06;82.60;;;24.73;;
52450;SDS011;38366;53.176;6.540;2022-12-18T00:18:33;68.32;;;20.23;;
52450;SDS011;38366;53.176;6.540;2022-12-18T00:21:00;67.47;;;19.00;;
52450;SDS011;38366;53.176;6.540;2022-12-18T00:23:30;55.60;;;18.33;;
52450;SDS011;38366;53.176;6.540;2022-12-18T00:26:01;62.83;;;21.75;;
52450;SDS011;38366;53.176;6.540;2022-12-18T00:28:27;55.40;;;20.63;;
52450;SDS011;38366;53.176;6.540;2022-12-18T00:31:00;56.55;;;18.15;;
52450;SDS011;38366;53.176;6.540;2022-12-18T00:33:31;67.38;;;19.85;;
52450;SDS011;38366;53.176;6.540;2022-12-18T00:36:10;68.57;;;19.75;;
52450;SDS011;38366;53.176;6.540;2022-12-18T00:38:40;56.58;;;17.92;;
52450;SDS011;38366;53.176;6.540;2022-12-18T00:41:07;61.85;;;19.73;;
52450;SDS011;38366;53.176;6.540;2022-12-18T00:43:35;66.78;;;19.27;;
52450;SDS011;38366;53.176;6.540;2022-12-18T00:46:01;67.30;;;20.65;;
52450;SDS011;38366;53.176;6.540;2022-12-18T00:48:27;74.03;;;21.83;;
52450;SDS011;38366;53.176;6.540;2022-12-18T00:50:53;66.72;;;19.98;;
52450;SDS011;38366;53.176;6.540;2022-12-18T00:53:19;68.32;;;20.65;;
52450;SDS011;38366;53.176;6.540;2022-12-18T00:55:45;68.22;;;21.73;;
52450;SDS011;38366;53.176;6.540;2022-12-18T00:58:11;52.03;;;18.30;;
52450;SDS011;38366;53.176;6.540;2022-12-18T01:00:38;79.57;;;21.63;;
52450;SDS011;38366;53.176;6.540;2022-12-18T01:03:04;73.53;;;21.50;;
52450;SDS011;38366;53.176;6.540;2022-12-18T01:05:31;69.70;;;20.15;;
52450;SDS011;38366;53.176;6.540;2022-12-18T01:07:57;65.95;;;19.67;;
52450;SDS011;38366;53.176;6.540;2022-12-18T01:10:23;67.22;;;18.90;;
52450;SDS011;38366;53.176;6.540;2022-12-18T01:12:49;75.45;;;23.02;;
52450;SDS011;38366;53.176;6.540;2022-12-18T01:15:15;72.82;;;19.67;;
52450;SDS011;38366;53.176;6.540;2022-12-18T01:17:42;78.90;;;21.73;;
52450;SDS011;38366;53.176;6.540;2022-12-18T01:22:35;68.90;;;20.20;;
52450;SDS011;38366;53.176;6.540;2022-12-18T01:25:01;66.10;;;19.75;;
52450;SDS011;38366;53.176;6.540;2022-12-18T01:27:26;75.50;;;22.05;;
52450;SDS011;38366;53.176;6.540;2022-12-18T01:29:52;77.65;;;23.38;;
52450;SDS011;38366;53.176;6.540;2022-12-18T01:32:18;61.60;;;19.50;;
52450;SDS011;38366;53.176;6.540;2022-12-18T01:34:44;75.25;;;20.15;;
52450;SDS011;38366;53.176;6.540;2022-12-18T01:37:10;67.50;;;20.65;;
52450;SDS011;38366;53.176;6.540;2022-12-18T01:39:35;65.80;;;19.35;;
52450;SDS011;38366;53.176;6.540;2022-12-18T01:42:08;56.95;;;17.80;;
52450;SDS011;38366;53.176;6.540;2022-12-18T01:47:38;51.08;;;17.23;;
52450;SDS011;38366;53.176;6.540;2022-12-18T01:53:20;64.10;;;19.27;;
52450;SDS011;38366;53.176;6.540;2022-12-18T01:55:55;63.83;;;19.33;;
52450;SDS011;38366;53.176;6.540;2022-12-18T01:58:24;57.15;;;19.65;;
52450;SDS011;38366;53.176;6.540;2022-12-18T02:00:57;62.30;;;20.92;;
52450;SDS011;38366;53.176;6.540;2022-12-18T02:03:23;76.82;;;21.55;;
52450;SDS011;38366;53.176;6.540;2022-12-18T02:05:56;65.00;;;21.23;;
52450;SDS011;38366;53.176;6.540;2022-12-18T02:08:44;64.57;;;19.25;;
52450;SDS011;38366;53.176;6.540;2022-12-18T02:11:33;57.00;;;15.45;;
52450;SDS011;38366;53.176;6.540;2022-12-18T02:16:59;69.60;;;20.08;;
52450;SDS011;38366;53.176;6.540;2022-12-18T02:19:41;66.85;;;20.02;;
52450;SDS011;38366;53.176;6.540;2022-12-18T02:28:11;72.22;;;19.42;;
52450;SDS011;38366;53.176;6.540;2022-12-18T02:30:39;63.92;;;19.55;;
52450;SDS011;38366;53.176;6.540;2022-12-18T02:33:07;67.28;;;20.02;;
52450;SDS011;38366;53.176;6.540;2022-12-18T02:35:34;73.07;;;20.73;;
52450;SDS011;38366;53.176;6.540;2022-12-18T02:38:03;63.67;;;20.25;;
52450;SDS011;38366;53.176;6.540;2022-12-18T02:40:32;75.22;;;21.05;;
52450;SDS011;38366;53.176;6.540;2022-12-18T02:45:35;65.75;;;21.45;;
52450;SDS011;38366;53.176;6.540;2022-12-18T02:48:00;71.95;;;21.80;;
52450;SDS011;38366;53.176;6.540;2022-12-18T02:50:30;66.68;;;20.08;;
52450;SDS011;38366;53.176;6.540;2022-12-18T02:58:41;74.30;;;21.40;;
52450;SDS011;38366;53.176;6.540;2022-12-18T03:01:30;64.60;;;19.58;;
52450;SDS011;38366;53.176;6.540;2022-12-18T03:04:14;73.75;;;21.50;;
52450;SDS011;38366;53.176;6.540;2022-12-18T03:06:47;74.97;;;20.73;;
52450;SDS011;38366;53.176;6.540;2022-12-18T03:09:17;50.92;;;18.45;;
52450;SDS011;38366;53.176;6.540;2022-12-18T03:11:48;77.10;;;21.67;;
52450;SDS011;38366;53.176;6.540;2022-12-18T03:14:39;68.25;;;22.27;;
52450;SDS011;38366;53.176;6.540;2022-12-18T03:17:09;72.45;;;21.67;;
52450;SDS011;38366;53.176;6.540;2022-12-18T03:19:38;73.10;;;22.08;;
52450;SDS011;38366;53.176;6.540;2022-12-18T03:22:06;76.30;;;21.92;;
52450;SDS011;38366;53.176;6.540;2022-12-18T03:24:34;74.63;;;23.08;;
52450;SDS011;38366;53.176;6.540;2022-12-18T03:27:05;55.05;;;17.17;;
52450;SDS011;38366;53.176;6.540;2022-12-18T03:30:17;77.75;;;22.33;;
52450;SDS011;38366;53.176;6.540;2022-12-18T03:32:29;73.03;;;22.05;;
52450;SDS011;38366;53.176;6.540;2022-12-18T03:34:58;72.47;;;22.60;;
52450;SDS011;38366;53.176;6.540;2022-12-18T03:37:27;68.43;;;21.98;;
52450;SDS011;38366;53.176;6.540;2022-12-18T03:39:56;67.22;;;20.17;;
52450;SDS011;38366;53.176;6.540;2022-12-18T03:50:28;67.80;;;21.00;;
52450;SDS011;38366;53.176;6.540;2022-12-18T03:53:37;60.33;;;19.20;;
52450;SDS011;38366;53.176;6.540;2022-12-18T03:56:22;63.17;;;21.65;;
52450;SDS011;38366;53.176;6.540;2022-12-18T03:58:52;71.75;;;22.30;;
52450;SDS011;38366;53.176;6.540;2022-12-18T04:01:19;62.22;;;20.65;;
52450;SDS011;38366;53.176;6.540;2022-12-18T04:03:48;67.53;;;22.90;;
52450;SDS011;38366;53.176;6.540;2022-12-18T04:06:15;65.68;;;20.67;;
52450;SDS011;38366;53.176;6.540;2022-12-18T04:08:42;53.65;;;17.60;;
52450;SDS011;38366;53.176;6.540;2022-12-18T04:11:08;52.78;;;17.30;;
52450;SDS011;38366;53.176;6.540;2022-12-18T04:13:35;66.38;;;21.17;;
52450;SDS011;38366;53.176;6.540;2022-12-18T04:16:02;60.60;;;19.30;;
52450;SDS011;38366;53.176;6.540;2022-12-18T04:20:53;69.70;;;21.67;;
52450;SDS011;38366;53.176;6.540;2022-12-18T04:23:19;64.30;;;19.83;;
52450;SDS011;38366;53.176;6.540;2022-12-18T04:25:46;65.47;;;21.05;;
52450;SDS011;38366;53.176;6.540;2022-12-18T04:28:12;71.57;;;21.50;;
52450;SDS011;38366;53.176;6.540;2022-12-18T04:30:38;64.40;;;20.00;;
52450;SDS011;38366;53.176;6.540;2022-12-18T04:33:04;57.97;;;19.48;;
52450;SDS011;38366;53.176;6.540;2022-12-18T04:35:34;58.88;;;19.80;;
52450;SDS011;38366;53.176;6.540;2022-12-18T04:38:00;68.88;;;21.23;;
52450;SDS011;38366;53.176;6.540;2022-12-18T04:40:26;76.28;;;22.27;;
52450;SDS011;38366;53.176;6.540;2022-12-18T04:42:51;62.58;;;19.20;;
52450;SDS011;38366;53.176;6.540;2022-12-18T04:45:17;65.57;;;21.15;;
52450;SDS011;38366;53.176;6.540;2022-12-18T04:47:43;72.30;;;23.23;;
52450;SDS011;38366;53.176;6.540;2022-12-18T04:50:09;65.65;;;20.85;;
52450;SDS011;38366;53.176;6.540;2022-12-18T04:52:35;56.90;;;20.08;;
52450;SDS011;38366;53.176;6.540;2022-12-18T04:55:00;72.20;;;21.63;;
52450;SDS011;38366;53.176;6.540;2022-12-18T04:57:26;48.63;;;17.90;;
52450;SDS011;38366;53.176;6.540;2022-12-18T04:59:52;45.88;;;14.68;;
52450;SDS011;38366;53.176;6.540;2022-12-18T05:02:17;50.85;;;18.52;;
52450;SDS011;38366;53.176;6.540;2022-12-18T05:04:43;60.70;;;19.33;;
52450;SDS011;38366;53.176;6.540;2022-12-18T05:07:09;62.58;;;20.13;;
52450;SDS011;38366;53.176;6.540;2022-12-18T05:09:34;65.07;;;20.27;;
52450;SDS011;38366;53.176;6.540;2022-12-18T05:12:00;60.38;;;20.20;;
52450;SDS011;38366;53.176;6.540;2022-12-18T05:14:26;63.35;;;19.02;;
52450;SDS011;38366;53.176;6.540;2022-12-18T05:16:52;62.95;;;19.35;;
52450;SDS011;38366;53.176;6.540;2022-12-18T05:19:18;59.17;;;19.92;;
52450;SDS011;38366;53.176;6.540;2022-12-18T05:21:44;59.30;;;19.13;;
52450;SDS011;38366;53.176;6.540;2022-12-18T05:24:09;63.05;;;20.83;;
52450;SDS011;38366;53.176;6.540;2022-12-18T05:26:35;60.92;;;18.33;;
52450;SDS011;38366;53.176;6.540;2022-12-18T05:29:01;52.35;;;18.67;;
52450;SDS011;38366;53.176;6.540;2022-12-18T05:31:26;61.72;;;19.33;;
52450;SDS011;38366;53.176;6.540;2022-12-18T05:33:52;54.85;;;18.98;;
52450;SDS011;38366;53.176;6.540;2022-12-18T05:38:44;55.75;;;19.60;;
52450;SDS011;38366;53.176;6.540;2022-12-18T05:41:10;59.80;;;18.25;;
52450;SDS011;38366;53.176;6.540;2022-12-18T05:43:36;60.40;;;18.83;;
52450;SDS011;38366;53.176;6.540;2022-12-18T05:46:07;53.85;;;17.52;;
52450;SDS011;38366;53.176;6.540;2022-12-18T05:48:36;54.28;;;17.88;;
52450;SDS011;38366;53.176;6.540;2022-12-18T05:51:12;60.53;;;19.33;;
52450;SDS011;38366;53.176;6.540;2022-12-18T05:53:40;59.03;;;17.27;;
52450;SDS011;38366;53.176;6.540;2022-12-18T05:56:08;57.17;;;18.80;;
52450;SDS011;38366;53.176;6.540;2022-12-18T05:58:39;56.75;;;18.45;;
52450;SDS011;38366;53.176;6.540;2022-12-18T06:01:24;57.95;;;18.33;;
52450;SDS011;38366;53.176;6.540;2022-12-18T06:03:51;54.50;;;18.17;;
52450;SDS011;38366;53.176;6.540;2022-12-18T06:06:18;56.65;;;18.15;;
52450;SDS011;38366;53.176;6.540;2022-12-18T06:08:45;48.03;;;16.60;;
52450;SDS011;38366;53.176;6.540;2022-12-18T06:11:11;54.30;;;19.08;;
52450;SDS011;38366;53.176;6.540;2022-12-18T06:13:38;53.22;;;17.90;;
52450;SDS011;38366;53.176;6.540;2022-12-18T06:16:04;44.47;;;15.57;;
52450;SDS011;38366;53.176;6.540;2022-12-18T06:18:31;51.80;;;17.00;;
52450;SDS011;38366;53.176;6.540;2022-12-18T06:20:58;50.83;;;17.13;;
52450;SDS011;38366;53.176;6.540;2022-12-18T06:23:25;49.08;;;15.68;;
52450;SDS011;38366;53.176;6.540;2022-12-18T06:25:54;47.63;;;17.13;;
52450;SDS011;38366;53.176;6.540;2022-12-18T06:28:20;48.60;;;17.45;;
52450;SDS011;38366;53.176;6.540;2022-12-18T06:30:46;45.25;;;16.92;;
52450;SDS011;38366;53.176;6.540;2022-12-18T06:33:13;50.75;;;16.63;;
52450;SDS011;38366;53.176;6.540;2022-12-18T06:35:39;34.45;;;14.30;;
52450;SDS011;38366;53.176;6.540;2022-12-18T06:38:05;44.50;;;16.15;;
52450;SDS011;38366;53.176;6.540;2022-12-18T06:40:31;49.00;;;16.15;;
52450;SDS011;38366;53.176;6.540;2022-12-18T06:42:57;46.50;;;16.77;;
52450;SDS011;38366;53.176;6.540;2022-12-18T06:45:23;40.90;;;14.93;;
52450;SDS011;38366;53.176;6.540;2022-12-18T06:47:49;45.38;;;14.82;;
52450;SDS011;38366;53.176;6.540;2022-12-18T06:50:15;47.83;;;16.92;;
52450;SDS011;38366;53.176;6.540;2022-12-18T06:52:41;42.53;;;15.27;;
52450;SDS011;38366;53.176;6.540;2022-12-18T06:55:09;41.35;;;16.15;;
52450;SDS011;38366;53.176;6.540;2022-12-18T06:57:35;49.08;;;16.35;;
52450;SDS011;38366;53.176;6.540;2022-12-18T07:02:28;38.53;;;14.93;;
52450;SDS011;38366;53.176;6.540;2022-12-18T07:04:54;44.28;;;16.40;;
52450;SDS011;38366;53.176;6.540;2022-12-18T07:07:20;42.58;;;15.45;;
52450;SDS011;38366;53.176;6.540;2022-12-18T07:09:45;42.22;;;15.43;;
52450;SDS011;38366;53.176;6.540;2022-12-18T07:12:11;39.47;;;15.63;;
52450;SDS011;38366;53.176;6.540;2022-12-18T07:14:37;42.40;;;14.25;;
52450;SDS011;38366;53.176;6.540;2022-12-18T07:17:03;41.40;;;14.95;;
52450;SDS011;38366;53.176;6.540;2022-12-18T07:19:29;21.73;;;10.38;;
52450;SDS011;38366;53.176;6.540;2022-12-18T07:21:54;34.10;;;14.52;;
52450;SDS011;38366;53.176;6.540;2022-12-18T07:24:20;44.20;;;14.48;;
52450;SDS011;38366;53.176;6.540;2022-12-18T07:26:46;37.47;;;15.07;;
52450;SDS011;38366;53.176;6.540;2022-12-18T07:31:38;40.00;;;14.27;;
52450;SDS011;38366;53.176;6.540;2022-12-18T07:34:03;33.35;;;14.18;;
52450;SDS011;38366;53.176;6.540;2022-12-18T07:36:29;34.45;;;13.75;;
52450;SDS011;38366;53.176;6.540;2022-12-18T07:38:55;35.40;;;14.02;;
52450;SDS011;38366;53.176;6.540;2022-12-18T07:41:21;31.40;;;12.98;;
52450;SDS011;38366;53.176;6.540;2022-12-18T07:43:47;33.65;;;12.88;;
52450;SDS011;38366;53.176;6.540;2022-12-18T07:46:13;32.35;;;12.82;;
52450;SDS011;38366;53.176;6.540;2022-12-18T07:48:40;37.47;;;13.63;;
52450;SDS011;38366;53.176;6.540;2022-12-18T07:51:09;35.78;;;14.65;;
52450;SDS011;38366;53.176;6.540;2022-12-18T07:53:35;42.63;;;15.75;;
52450;SDS011;38366;53.176;6.540;2022-12-18T07:56:05;35.58;;;13.85;;
52450;SDS011;38366;53.176;6.540;2022-12-18T07:58:33;29.73;;;13.90;;
52450;SDS011;38366;53.176;6.540;2022-12-18T08:01:09;41.72;;;14.70;;
52450;SDS011;38366;53.176;6.540;2022-12-18T08:03:39;34.15;;;13.45;;
52450;SDS011;38366;53.176;6.540;2022-12-18T08:06:07;36.95;;;14.52;;
52450;SDS011;38366;53.176;6.540;2022-12-18T08:08:34;32.97;;;14.45;;
52450;SDS011;38366;53.176;6.540;2022-12-18T08:13:26;35.00;;;13.48;;
52450;SDS011;38366;53.176;6.540;2022-12-18T08:15:59;32.70;;;13.88;;
52450;SDS011;38366;53.176;6.540;2022-12-18T08:18:29;28.67;;;12.93;;
52450;SDS011;38366;53.176;6.540;2022-12-18T08:20:56;28.42;;;12.98;;
52450;SDS011;38366;53.176;6.540;2022-12-18T08:23:22;29.77;;;12.57;;
52450;SDS011;38366;53.176;6.540;2022-12-18T08:25:48;29.60;;;12.70;;
52450;SDS011;38366;53.176;6.540;2022-12-18T08:28:16;25.92;;;12.60;;
52450;SDS011;38366;53.176;6.540;2022-12-18T08:30:41;31.35;;;12.43;;
52450;SDS011;38366;53.176;6.540;2022-12-18T08:33:07;26.35;;;10.48;;
52450;SDS011;38366;53.176;6.540;2022-12-18T08:35:36;28.98;;;11.90;;
52450;SDS011;38366;53.176;6.540;2022-12-18T08:38:02;32.28;;;13.57;;
52450;SDS011;38366;53.176;6.540;2022-12-18T08:40:28;22.48;;;10.30;;
52450;SDS011;38366;53.176;6.540;2022-12-18T08:42:54;28.45;;;12.68;;
52450;SDS011;38366;53.176;6.540;2022-12-18T08:45:38;25.40;;;11.88;;
52450;SDS011;38366;53.176;6.540;2022-12-18T08:48:04;28.33;;;11.95;;
52450;SDS011;38366;53.176;6.540;2022-12-18T08:50:30;29.58;;;12.75;;
52450;SDS011;38366;53.176;6.540;2022-12-18T08:53:01;28.67;;;12.40;;
52450;SDS011;38366;53.176;6.540;2022-12-18T08:55:27;30.30;;;12.82;;
52450;SDS011;38366;53.176;6.540;2022-12-18T08:57:53;28.83;;;12.32;;
52450;SDS011;38366;53.176;6.540;2022-12-18T09:00:18;27.95;;;12.55;;
52450;SDS011;38366;53.176;6.540;2022-12-18T09:02:45;27.83;;;12.18;;
52450;SDS011;38366;53.176;6.540;2022-12-18T09:05:10;26.77;;;12.13;;
52450;SDS011;38366;53.176;6.540;2022-12-18T09:07:36;28.90;;;12.77;;
52450;SDS011;38366;53.176;6.540;2022-12-18T09:10:02;27.67;;;12.35;;
52450;SDS011;38366;53.176;6.540;2022-12-18T09:12:28;23.65;;;11.90;;
52450;SDS011;38366;53.176;6.540;2022-12-18T09:14:54;24.95;;;11.80;;
52450;SDS011;38366;53.176;6.540;2022-12-18T09:17:21;28.85;;;11.40;;
52450;SDS011;38366;53.176;6.540;2022-12-18T09:19:47;27.10;;;11.63;;
52450;SDS011;38366;53.176;6.540;2022-12-18T09:22:12;27.90;;;12.10;;
52450;SDS011;38366;53.176;6.540;2022-12-18T09:24:38;29.30;;;12.13;;
52450;SDS011;38366;53.176;6.540;2022-12-18T09:27:04;25.27;;;12.02;;
52450;SDS011;38366;53.176;6.540;2022-12-18T09:29:30;26.17;;;11.68;;
52450;SDS011;38366;53.176;6.540;2022-12-18T09:31:55;26.92;;;11.82;;
52450;SDS011;38366;53.176;6.540;2022-12-18T09:34:21;23.38;;;11.80;;
52450;SDS011;38366;53.176;6.540;2022-12-18T09:36:47;23.73;;;11.20;;
52450;SDS011;38366;53.176;6.540;2022-12-18T09:39:13;27.30;;;12.02;;
52450;SDS011;38366;53.176;6.540;2022-12-18T09:41:41;24.17;;;11.27;;
52450;SDS011;38366;53.176;6.540;2022-12-18T09:46:45;22.05;;;11.18;;
52450;SDS011;38366;53.176;6.540;2022-12-18T09:49:14;24.38;;;11.80;;
52450;SDS011;38366;53.176;6.540;2022-12-18T09:51:45;25.48;;;11.43;;
52450;SDS011;38366;53.176;6.540;2022-12-18T09:54:23;24.67;;;12.15;;
52450;SDS011;38366;53.176;6.540;2022-12-18T09:57:13;23.90;;;11.57;;
52450;SDS011;38366;53.176;6.540;2022-12-18T09:59:40;22.67;;;11.20;;
52450;SDS011;38366;53.176;6.540;2022-12-18T10:02:13;22.40;;;12.27;;
52450;SDS011;38366;53.176;6.540;2022-12-18T10:07:18;21.25;;;11.52;;
52450;SDS011;38366;53.176;6.540;2022-12-18T10:13:38;22.85;;;11.18;;
52450;SDS011;38366;53.176;6.540;2022-12-18T10:16:09;20.05;;;10.45;;
52450;SDS011;38366;53.176;6.540;2022-12-18T10:26:59;19.90;;;10.38;;
52450;SDS011;38366;53.176;6.540;2022-12-18T10:29:36;16.73;;;8.93;;
52450;SDS011;38366;53.176;6.540;2022-12-18T10:32:02;20.15;;;8.43;;
52450;SDS011;38366;53.176;6.540;2022-12-18T10:34:28;17.45;;;9.10;;
52450;SDS011;38366;53.176;6.540;2022-12-18T10:36:53;15.53;;;8.57;;
52450;SDS011;38366;53.176;6.540;2022-12-18T10:39:20;15.87;;;8.93;;
52450;SDS011;38366;53.176;6.540;2022-12-18T10:41:58;14.90;;;8.20;;
52450;SDS011;38366;53.176;6.540;2022-12-18T10:44:36;16.38;;;9.00;;
52450;SDS011;38366;53.176;6.540;2022-12-18T10:47:03;14.35;;;8.50;;
52450;SDS011;38366;53.176;6.540;2022-12-18T10:49:32;12.88;;;7.70;;
52450;SDS011;38366;53.176;6.540;2022-12-18T10:55:02;16.08;;;8.10;;
52450;SDS011;38366;53.176;6.540;2022-12-18T10:57:30;15.45;;;8.32;;
52450;SDS011;38366;53.176;6.540;2022-12-18T11:00:23;14.65;;;7.65;;
52450;SDS011;38366;53.176;6.540;2022-12-18T11:02:53;12.57;;;6.75;;
52450;SDS011;38366;53.176;6.540;2022-12-18T11:07:48;12.35;;;6.88;;
52450;SDS011;38366;53.176;6.540;2022-12-18T11:10:16;13.57;;;6.68;;
52450;SDS011;38366;53.176;6.540;2022-12-18T11:12:43;13.50;;;7.13;;
52450;SDS011;38366;53.176;6.540;2022-12-18T11:15:20;14.18;;;6.70;;
52450;SDS011;38366;53.176;6.540;2022-12-18T11:17:52;11.20;;;6.88;;
52450;SDS011;38366;53.176;6.540;2022-12-18T11:20:20;13.48;;;6.78;;
52450;SDS011;38366;53.176;6.540;2022-12-18T11:23:11;10.90;;;6.10;;
52450;SDS011;38366;53.176;6.540;2022-12-18T11:25:38;9.55;;;5.03;;
52450;SDS011;38366;53.176;6.540;2022-12-18T11:28:26;11.60;;;6.22;;
52450;SDS011;38366;53.176;6.540;2022-12-18T11:36:42;11.73;;;6.00;;
52450;SDS011;38366;53.176;6.540;2022-12-18T11:41:53;11.35;;;5.32;;
52450;SDS011;38366;53.176;6.540;2022-12-18T11:47:18;9.77;;;5.20;;
52450;SDS011;38366;53.176;6.540;2022-12-18T11:50:13;10.70;;;5.78;;
52450;SDS011;38366;53.176;6.540;2022-12-18T11:52:41;11.40;;;5.45;;
52450;SDS011;38366;53.176;6.540;2022-12-18T11:55:12;10.00;;;5.75;;
52450;SDS011;38366;53.176;6.540;2022-12-18T11:57:55;11.07;;;5.53;;
52450;SDS011;38366;53.176;6.540;2022-12-18T12:00:30;12.32;;;5.32;;
52450;SDS011;38366;53.176;6.540;2022-12-18T12:08:24;10.40;;;5.47;;
52450;SDS011;38366;53.176;6.540;2022-12-18T12:17:03;8.38;;;5.05;;
52450;SDS011;38366;53.176;6.540;2022-12-18T12:24:48;8.63;;;4.80;;
52450;SDS011;38366;53.176;6.540;2022-12-18T12:38:46;9.13;;;4.70;;
52450;SDS011;38366;53.176;6.540;2022-12-18T12:41:09;8.55;;;5.03;;
52450;SDS011;38366;53.176;6.540;2022-12-18T12:44:03;9.05;;;5.35;;
52450;SDS011;38366;53.176;6.540;2022-12-18T12:46:34;9.77;;;5.53;;
52450;SDS011;38366;53.176;6.540;2022-12-18T12:49:09;12.55;;;5.22;;
52450;SDS011;38366;53.176;6.540;2022-12-18T12:51:43;11.15;;;5.07;;
52450;SDS011;38366;53.176;6.540;2022-12-18T12:54:19;9.55;;;4.65;;
52450;SDS011;38366;53.176;6.540;2022-12-18T12:56:57;7.45;;;4.07;;
52450;SDS011;38366;53.176;6.540;2022-12-18T13:02:37;10.60;;;5.10;;
52450;SDS011;38366;53.176;6.540;2022-12-18T13:07:58;13.02;;;4.97;;
52450;SDS011;38366;53.176;6.540;2022-12-18T13:25:44;7.72;;;4.40;;
52450;SDS011;38366;53.176;6.540;2022-12-18T13:28:14;8.05;;;4.60;;
52450;SDS011;38366;53.176;6.540;2022-12-18T13:30:45;8.30;;;5.03;;
52450;SDS011;38366;53.176;6.540;2022-12-18T13:45:48;12.48;;;6.43;;
52450;SDS011;38366;53.176;6.540;2022-12-18T13:48:24;12.10;;;5.82;;
52450;SDS011;38366;53.176;6.540;2022-12-18T13:53:33;10.48;;;5.85;;
52450;SDS011;38366;53.176;6.540;2022-12-18T13:56:03;8.43;;;4.50;;
52450;SDS011;38366;53.176;6.540;2022-12-18T13:58:30;10.57;;;5.40;;
52450;SDS011;38366;53.176;6.540;2022-12-18T14:00:56;9.38;;;5.32;;
52450;SDS011;38366;53.176;6.540;2022-12-18T14:03:25;13.10;;;4.50;;
52450;SDS011;38366;53.176;6.540;2022-12-18T14:05:57;8.90;;;5.25;;
52450;SDS011;38366;53.176;6.540;2022-12-18T14:08:27;7.30;;;4.75;;
52450;SDS011;38366;53.176;6.540;2022-12-18T14:10:57;10.38;;;4.95;;
52450;SDS011;38366;53.176;6.540;2022-12-18T14:13:36;8.93;;;5.25;;
52450;SDS011;38366;53.176;6.540;2022-12-18T14:16:06;10.07;;;4.85;;
52450;SDS011;38366;53.176;6.540;2022-12-18T14:18:38;8.98;;;4.75;;
52450;SDS011;38366;53.176;6.540;2022-12-18T14:21:30;10.02;;;4.70;;
52450;SDS011;38366;53.176;6.540;2022-12-18T14:24:02;9.93;;;5.00;;
52450;SDS011;38366;53.176;6.540;2022-12-18T14:26:29;10.18;;;5.47;;
52450;SDS011;38366;53.176;6.540;2022-12-18T14:28:56;14.13;;;5.63;;
52450;SDS011;38366;53.176;6.540;2022-12-18T14:31:42;9.23;;;4.80;;
52450;SDS011;38366;53.176;6.540;2022-12-18T14:34:14;7.85;;;4.60;;
52450;SDS011;38366;53.176;6.540;2022-12-18T14:36:41;8.93;;;4.53;;
52450;SDS011;38366;53.176;6.540;2022-12-18T14:39:17;9.10;;;5.10;;
52450;SDS011;38366;53.176;6.540;2022-12-18T14:41:43;10.23;;;5.32;;
52450;SDS011;38366;53.176;6.540;2022-12-18T14:44:10;10.32;;;5.05;;
52450;SDS011;38366;53.176;6.540;2022-12-18T14:46:38;9.73;;;5.70;;
52450;SDS011;38366;53.176;6.540;2022-12-18T14:51:42;10.63;;;5.85;;
52450;SDS011;38366;53.176;6.540;2022-12-18T14:54:38;12.35;;;5.57;;
52450;SDS011;38366;53.176;6.540;2022-12-18T14:59:51;12.05;;;5.72;;
52450;SDS011;38366;53.176;6.540;2022-12-18T15:02:26;11.75;;;5.53;;
52450;SDS011;38366;53.176;6.540;2022-12-18T15:05:15;10.15;;;5.00;;
52450;SDS011;38366;53.176;6.540;2022-12-18T15:07:43;15.77;;;6.65;;
52450;SDS011;38366;53.176;6.540;2022-12-18T15:10:12;12.15;;;5.90;;
52450;SDS011;38366;53.176;6.540;2022-12-18T15:18:02;11.15;;;5.72;;
52450;SDS011;38366;53.176;6.540;2022-12-18T15:20:29;11.20;;;6.38;;
52450;SDS011;38366;53.176;6.540;2022-12-18T15:22:58;10.82;;;5.90;;
52450;SDS011;38366;53.176;6.540;2022-12-18T15:27:55;14.45;;;6.22;;
52450;SDS011;38366;53.176;6.540;2022-12-18T15:30:22;11.30;;;6.38;;
52450;SDS011;38366;53.176;6.540;2022-12-18T15:32:49;12.13;;;6.50;;
52450;SDS011;38366;53.176;6.540;2022-12-18T15:37:46;16.00;;;7.75;;
52450;SDS011;38366;53.176;6.540;2022-12-18T15:40:13;19.02;;;8.27;;
52450;SDS011;38366;53.176;6.540;2022-12-18T15:42:41;32.55;;;12.85;;
52450;SDS011;38366;53.176;6.540;2022-12-18T15:45:26;14.38;;;7.60;;
52450;SDS011;38366;53.176;6.540;2022-12-18T15:47:52;11.98;;;6.47;;
52450;SDS011;38366;53.176;6.540;2022-12-18T15:50:18;15.00;;;6.88;;
52450;SDS011;38366;53.176;6.540;2022-12-18T15:52:45;12.13;;;7.50;;
52450;SDS011;38366;53.176;6.540;2022-12-18T15:55:16;14.02;;;6.80;;
52450;SDS011;38366;53.176;6.540;2022-12-18T16:01:27;17.15;;;6.72;;
52450;SDS011;38366;53.176;6.540;2022-12-18T16:03:54;15.13;;;7.45;;
52450;SDS011;38366;53.176;6.540;2022-12-18T16:06:21;13.75;;;6.55;;
52450;SDS011;38366;53.176;6.540;2022-12-18T16:08:47;13.85;;;6.95;;
52450;SDS011;38366;53.176;6.540;2022-12-18T16:11:20;12.63;;;6.82;;
52450;SDS011;38366;53.176;6.540;2022-12-18T16:14:24;14.35;;;7.97;;
52450;SDS011;38366;53.176;6.540;2022-12-18T16:16:53;12.25;;;6.25;;
52450;SDS011;38366;53.176;6.540;2022-12-18T16:19:23;13.80;;;7.13;;
52450;SDS011;38366;53.176;6.540;2022-12-18T16:21:50;17.05;;;9.38;;
52450;SDS011;38366;53.176;6.540;2022-12-18T16:24:22;14.93;;;8.25;;
52450;SDS011;38366;53.176;6.540;2022-12-18T16:26:50;15.13;;;7.72;;
52450;SDS011;38366;53.176;6.540;2022-12-18T16:29:17;16.30;;;7.70;;
52450;SDS011;38366;53.176;6.540;2022-12-18T16:34:13;12.18;;;6.00;;
52450;SDS011;38366;53.176;6.540;2022-12-18T16:36:39;13.45;;;6.85;;
52450;SDS011;38366;53.176;6.540;2022-12-18T16:39:05;16.35;;;7.22;;
52450;SDS011;38366;53.176;6.540;2022-12-18T16:41:31;14.50;;;7.43;;
52450;SDS011;38366;53.176;6.540;2022-12-18T16:43:57;16.45;;;7.75;;
52450;SDS011;38366;53.176;6.540;2022-12-18T16:48:49;14.40;;;6.78;;
52450;SDS011;38366;53.176;6.540;2022-12-18T16:51:15;22.45;;;9.75;;
52450;SDS011;38366;53.176;6.540;2022-12-18T16:53:41;17.23;;;8.30;;
52450;SDS011;38366;53.176;6.540;2022-12-18T16:56:06;11.77;;;6.72;;
52450;SDS011;38366;53.176;6.540;2022-12-18T16:58:32;18.15;;;7.43;;
52450;SDS011;38366;53.176;6.540;2022-12-18T17:00:58;10.77;;;6.03;;
52450;SDS011;38366;53.176;6.540;2022-12-18T17:03:24;12.10;;;6.18;;
52450;SDS011;38366;53.176;6.540;2022-12-18T17:05:50;11.10;;;5.30;;
52450;SDS011;38366;53.176;6.540;2022-12-18T17:08:16;11.95;;;7.00;;
52450;SDS011;38366;53.176;6.540;2022-12-18T17:14:14;13.25;;;7.05;;
52450;SDS011;38366;53.176;6.540;2022-12-18T17:16:41;13.10;;;6.28;;
52450;SDS011;38366;53.176;6.540;2022-12-18T17:19:07;11.65;;;6.18;;
52450;SDS011;38366;53.176;6.540;2022-12-18T17:21:33;10.68;;;6.90;;
52450;SDS011;38366;53.176;6.540;2022-12-18T17:23:59;11.23;;;7.00;;
52450;SDS011;38366;53.176;6.540;2022-12-18T17:26:25;11.30;;;6.38;;
52450;SDS011;38366;53.176;6.540;2022-12-18T17:28:52;13.98;;;6.00;;
52450;SDS011;38366;53.176;6.540;2022-12-18T17:31:21;12.70;;;6.22;;